Time;durP1;ratioP1;P1;durP2;ratioP2;P2;SDS_P1;SDS_P2;PMS_P1;PMS_P2;Temp;Humidity;BMP_temperature;BMP_pressure;BME280_temperature;BME280_humidity;BME280_pressure;Samples;Min_cycle;Max_cycle;Signal;HPM_P1;HPM_P2
2024/01/05 00:02:02;;;;;;;;;;;;;;;8.60;54.91;98462.63;4421014;32;33005;-86
2024/01/05 00:04:29;;;;;;;;;;;;;;;8.73;54.08;98464.50;4420775;32;33082;-82
2024/01/05 00:06:56;;;;;;;;;;;;;;;8.41;55.29;98470.22;4419395;32;34355;-88
2024/01/05 00:09:24;;;;;;;;;;;;;;;8.71;54.46;98476.50;4420407;32;33898;-86
2024/01/05 00:11:52;;;;;;;;;;;;;;;8.46;55.01;98472.84;4419980;32;34972;-81
2024/01/05 00:14:19;;;;;;;;;;;;;;;8.62;54.88;98474.72;4420121;32;33096;-85
2024/01/05 00:16:46;;;;;;;;;;;;;;;8.42;54.74;98481.44;4420977;32;34325;-82
2024/01/05 00:19:14;;;;;;;;;;;;;;;9.11;52.71;98469.97;4421461;32;34202;-84
2024/01/05 00:21:41;;;;;;;;;;;;;;;8.34;54.74;98477.88;4421265;32;35191;-83
2024/01/05 00:24:08;;;;;;;;;;;;;;;8.49;54.64;98490.97;4420487;32;33664;-89
2024/01/05 00:26:39;;;;;;;;;;;;;;;8.22;55.24;98483.72;4420645;32;33969;-84
2024/01/05 00:29:07;;;;;;;;;;;;;;;8.52;54.21;98484.13;4419078;32;35187;-86
2024/01/05 00:31:34;;;;;;;;;;;;;;;8.00;55.76;98490.38;4421335;32;33838;-82
2024/01/05 00:34:02;;;;;;;;;;;;;;;8.31;55.59;98488.16;4421683;32;33765;-82
2024/01/05 00:36:30;;;;;;;;;;;;;;;8.50;54.80;98485.81;4418849;32;33785;-90
2024/01/05 00:38:57;;;;;;;;;;;;;;;8.91;53.71;98493.09;4414601;32;34552;-82
2024/01/05 00:41:25;;;;;;;;;;;;;;;8.75;54.21;98491.19;4415629;32;34494;-84
2024/01/05 00:43:52;;;;;;;;;;;;;;;9.21;52.87;98495.03;4421351;32;34138;-84
2024/01/05 00:46:19;;;;;;;;;;;;;;;9.16;52.88;98508.78;4430114;32;34867;-83
2024/01/05 00:48:50;;;;;;;;;;;;;;;9.01;53.31;98509.53;4434826;32;35513;-89
2024/01/05 00:51:17;;;;;;;;;;;;;;;9.01;53.29;98512.09;4436045;32;34367;-84
2024/01/05 00:53:44;;;;;;;;;;;;;;;8.75;53.58;98507.59;4435264;32;33426;-85
2024/01/05 00:56:12;;;;;;;;;;;;;;;8.54;54.31;98509.97;4437332;32;34209;-87
2024/01/05 00:58:39;;;;;;;;;;;;;;;8.51;54.41;98505.63;4441315;32;34468;-84
2024/01/05 01:01:08;;;;;;;;;;;;;;;8.75;53.57;98501.53;4435530;32;35199;-83
2024/01/05 01:03:36;;;;;;;;;;;;;;;8.17;55.41;98508.66;4434061;32;33565;-84
2024/01/05 01:06:03;;;;;;;;;;;;;;;8.39;54.65;98507.22;4435982;32;34842;-84
2024/01/05 01:08:30;;;;;;;;;;;;;;;8.18;55.20;98510.38;4436288;32;35003;-85
2024/01/05 01:11:00;;;;;;;;;;;;;;;8.15;55.24;98512.94;4434442;32;34450;-88
2024/01/05 01:13:27;;;;;;;;;;;;;;;8.07;55.52;98510.28;4431803;32;33549;-85
2024/01/05 01:15:54;;;;;;;;;;;;;;;7.90;55.92;98516.94;4423246;32;33991;-87
2024/01/05 01:18:22;;;;;;;;;;;;;;;7.82;56.05;98523.69;4426292;32;34540;-86
2024/01/05 01:20:49;;;;;;;;;;;;;;;8.04;55.48;98524.00;4432250;32;34143;-87
2024/01/05 01:23:16;;;;;;;;;;;;;;;8.22;54.92;98517.31;4432487;32;33018;-84
2024/01/05 01:25:44;;;;;;;;;;;;;;;7.70;56.64;98530.44;4427990;32;34221;-85
2024/01/05 01:28:12;;;;;;;;;;;;;;;7.67;56.69;98535.53;4422726;32;34549;-83
2024/01/05 01:30:39;;;;;;;;;;;;;;;7.31;57.82;98536.75;4435474;32;34110;-89
2024/01/05 01:33:07;;;;;;;;;;;;;;;7.63;56.84;98538.06;4435572;32;33249;-86
2024/01/05 01:35:34;;;;;;;;;;;;;;;7.45;57.39;98536.94;4424745;32;34161;-87
2024/01/05 01:38:02;;;;;;;;;;;;;;;7.25;57.90;98531.47;4434957;32;33815;-89
2024/01/05 01:40:29;;;;;;;;;;;;;;;7.07;58.56;98518.28;4428959;32;34270;-85
2024/01/05 01:42:56;;;;;;;;;;;;;;;7.39;57.98;98523.97;4422532;32;33111;-83
2024/01/05 01:45:24;;;;;;;;;;;;;;;7.01;58.94;98520.78;4420924;32;33316;-84
2024/01/05 01:47:54;;;;;;;;;;;;;;;6.97;59.01;98524.13;4422092;32;33302;-87
2024/01/05 01:50:24;;;;;;;;;;;;;;;6.92;59.27;98505.16;4422261;32;32803;-87
2024/01/05 01:52:52;;;;;;;;;;;;;;;7.20;57.83;98509.94;4422622;32;33499;-85
2024/01/05 01:55:19;;;;;;;;;;;;;;;7.77;56.19;98488.38;4422406;32;34506;-83
2024/01/05 01:57:47;;;;;;;;;;;;;;;7.65;56.07;98480.50;4404244;32;33958;-88
2024/01/05 02:00:14;;;;;;;;;;;;;;;7.59;56.26;98471.81;4434223;32;34029;-89
2024/01/05 02:02:45;;;;;;;;;;;;;;;7.59;56.44;98464.94;4422428;32;33418;-84
2024/01/05 02:05:13;;;;;;;;;;;;;;;7.95;55.59;98479.97;4421723;32;34013;-87
2024/01/05 02:07:40;;;;;;;;;;;;;;;7.93;55.61;98471.38;4435896;32;34269;-86
2024/01/05 02:10:07;;;;;;;;;;;;;;;8.33;54.70;98469.22;4422124;32;34409;-85
2024/01/05 02:12:35;;;;;;;;;;;;;;;8.14;55.11;98469.87;4435995;32;33404;-84
2024/01/05 02:15:02;;;;;;;;;;;;;;;8.03;55.42;98467.16;4435531;32;34291;-84
2024/01/05 02:17:49;;;;;;;;;;;;;;;8.03;55.38;98462.91;4421415;32;33375;-85
2024/01/05 02:20:17;;;;;;;;;;;;;;;7.85;56.11;98472.12;4423399;32;34871;-84
2024/01/05 02:22:47;;;;;;;;;;;;;;;7.70;56.25;98468.50;4405863;32;32657;-84
2024/01/05 02:25:14;;;;;;;;;;;;;;;7.80;56.39;98464.31;4404318;32;33471;-84
2024/01/05 02:27:41;;;;;;;;;;;;;;;7.86;55.80;98463.53;4420963;32;32885;-84
2024/01/05 02:30:09;;;;;;;;;;;;;;;8.04;55.44;98463.75;4426037;32;32519;-89
2024/01/05 02:32:36;;;;;;;;;;;;;;;7.80;56.23;98469.47;4434915;32;34080;-85
2024/01/05 02:35:03;;;;;;;;;;;;;;;8.28;54.84;98471.75;4435615;32;34208;-86
2024/01/05 02:37:31;;;;;;;;;;;;;;;8.21;54.89;98467.38;4435188;32;35785;-85
2024/01/05 02:39:58;;;;;;;;;;;;;;;8.03;55.20;98473.22;4434844;32;34088;-86
2024/01/05 02:42:25;;;;;;;;;;;;;;;8.49;53.97;98478.06;4440770;32;33591;-86
2024/01/05 02:44:53;;;;;;;;;;;;;;;8.59;54.18;98476.41;4440961;32;33820;-85
2024/01/05 02:47:20;;;;;;;;;;;;;;;8.24;54.88;98470.00;4445902;32;33836;-87
2024/01/05 02:49:47;;;;;;;;;;;;;;;8.32;54.88;98479.56;4450340;32;34720;-83
2024/01/05 02:52:15;;;;;;;;;;;;;;;8.37;54.70;98481.38;4437377;32;33077;-83
2024/01/05 02:54:44;;;;;;;;;;;;;;;8.65;54.05;98479.06;4437335;32;34303;-82
2024/01/05 02:57:11;;;;;;;;;;;;;;;8.81;53.54;98487.81;4436689;32;34776;-83
2024/01/05 02:59:39;;;;;;;;;;;;;;;8.36;54.79;98491.66;4432377;32;33862;-84
2024/01/05 03:02:06;;;;;;;;;;;;;;;8.14;55.26;98481.06;4435581;32;33567;-85
2024/01/05 03:04:33;;;;;;;;;;;;;;;8.34;55.17;98496.81;4436916;32;34046;-84
2024/01/05 03:07:01;;;;;;;;;;;;;;;8.59;54.31;98499.66;4436950;32;34883;-86
2024/01/05 03:09:28;;;;;;;;;;;;;;;8.61;54.34;98503.16;4434599;32;34311;-81
2024/01/05 03:11:56;;;;;;;;;;;;;;;8.65;54.03;98500.59;4437261;32;33115;-82
2024/01/05 03:14:23;;;;;;;;;;;;;;;8.58;54.00;98491.06;4437249;32;34941;-83
2024/01/05 03:16:50;;;;;;;;;;;;;;;8.56;54.19;98485.03;4437168;32;34518;-87
2024/01/05 03:19:18;;;;;;;;;;;;;;;8.57;54.26;98480.72;4423251;32;34098;-84
2024/01/05 03:21:45;;;;;;;;;;;;;;;8.17;55.36;98475.94;4436977;32;33598;-83
2024/01/05 03:24:12;;;;;;;;;;;;;;;8.03;56.05;98477.50;4437147;32;34867;-83
2024/01/05 03:26:42;;;;;;;;;;;;;;;8.02;55.89;98473.19;4437315;32;34363;-87
2024/01/05 03:29:10;;;;;;;;;;;;;;;7.77;57.23;98470.31;4435985;32;34074;-82
2024/01/05 03:31:37;;;;;;;;;;;;;;;7.97;56.68;98461.97;4437142;32;33095;-90
2024/01/05 03:34:04;;;;;;;;;;;;;;;7.90;56.85;98473.91;4437276;32;34179;-90
2024/01/05 03:36:32;;;;;;;;;;;;;;;8.19;55.94;98488.88;4436903;32;34522;-85
2024/01/05 03:38:59;;;;;;;;;;;;;;;8.29;55.20;98494.16;4436846;32;34256;-84
2024/01/05 03:41:27;;;;;;;;;;;;;;;8.52;54.40;98498.72;4436196;32;33679;-82
2024/01/05 03:43:54;;;;;;;;;;;;;;;8.63;54.11;98512.63;4437000;32;34009;-82
2024/01/05 03:46:21;;;;;;;;;;;;;;;8.50;54.29;98506.47;4436698;32;35172;-82
2024/01/05 03:48:48;;;;;;;;;;;;;;;8.53;54.19;98508.22;4435058;32;34089;-86
2024/01/05 03:51:16;;;;;;;;;;;;;;;8.29;54.81;98507.06;4434931;32;34168;-87
2024/01/05 03:53:44;;;;;;;;;;;;;;;8.24;55.04;98494.97;4436242;32;33888;-87
2024/01/05 03:56:11;;;;;;;;;;;;;;;7.93;55.80;98494.59;4423194;32;35117;-83
2024/01/05 03:58:38;;;;;;;;;;;;;;;7.95;55.75;98487.72;4435893;32;34923;-82
2024/01/05 04:01:05;;;;;;;;;;;;;;;7.86;55.83;98504.84;4434582;32;33612;-83
2024/01/05 04:03:33;;;;;;;;;;;;;;;7.63;56.50;98528.59;4421306;32;33411;-82
2024/01/05 04:06:00;;;;;;;;;;;;;;;7.36;57.30;98551.41;4431934;32;35138;-87
2024/01/05 04:08:27;;;;;;;;;;;;;;;7.18;58.35;98545.13;4429472;32;34887;-83
2024/01/05 04:10:55;;;;;;;;;;;;;;;7.08;59.08;98558.69;4436104;32;33373;-82
2024/01/05 04:13:22;;;;;;;;;;;;;;;7.29;58.34;98559.03;4432205;32;34945;-82
2024/01/05 04:15:49;;;;;;;;;;;;;;;7.25;58.00;98552.09;4421589;32;34202;-84
2024/01/05 04:18:17;;;;;;;;;;;;;;;7.32;57.70;98553.94;4422024;32;33345;-82
2024/01/05 04:20:44;;;;;;;;;;;;;;;7.36;57.39;98551.41;4427321;32;33067;-81
2024/01/05 04:23:12;;;;;;;;;;;;;;;7.43;57.04;98553.25;4434736;32;34046;-85
2024/01/05 04:25:40;;;;;;;;;;;;;;;7.17;57.65;98547.69;4435907;32;35274;-82
2024/01/05 04:28:07;;;;;;;;;;;;;;;7.02;58.13;98554.31;4436979;32;34457;-82
2024/01/05 04:30:35;;;;;;;;;;;;;;;7.36;57.24;98544.53;4435356;32;33511;-82
2024/01/05 04:33:03;;;;;;;;;;;;;;;7.20;57.43;98532.28;4436300;32;34034;-87
2024/01/05 04:35:31;;;;;;;;;;;;;;;6.88;57.97;98542.88;4436709;32;34736;-88
2024/01/05 04:37:58;;;;;;;;;;;;;;;6.92;58.17;98561.84;4433996;32;33816;-86
2024/01/05 04:40:25;;;;;;;;;;;;;;;6.98;58.18;98567.13;4435945;32;33137;-82
2024/01/05 04:42:53;;;;;;;;;;;;;;;7.17;57.55;98566.59;4436904;32;33818;-82
2024/01/05 04:45:21;;;;;;;;;;;;;;;7.39;56.83;98564.38;4436189;32;34774;-83
2024/01/05 04:47:50;;;;;;;;;;;;;;;7.11;57.46;98558.75;4435509;32;34282;-81
2024/01/05 04:50:17;;;;;;;;;;;;;;;7.11;57.39;98558.75;4436353;32;33080;-83
2024/01/05 04:52:44;;;;;;;;;;;;;;;7.15;57.21;98559.66;4435982;32;34089;-86
2024/01/05 04:55:14;;;;;;;;;;;;;;;6.68;58.33;98557.12;4436422;32;34100;-85
2024/01/05 04:57:42;;;;;;;;;;;;;;;6.81;58.09;98561.66;4435681;32;34062;-85
2024/01/05 05:00:13;;;;;;;;;;;;;;;6.92;58.14;98557.56;4433721;32;33263;-81
2024/01/05 05:02:40;;;;;;;;;;;;;;;7.05;57.87;98566.38;4433153;32;33722;-89
2024/01/05 05:05:08;;;;;;;;;;;;;;;7.14;57.36;98565.66;4436046;32;33693;-82
2024/01/05 05:07:36;;;;;;;;;;;;;;;7.18;57.22;98564.88;4435565;32;35003;-83
2024/01/05 05:10:03;;;;;;;;;;;;;;;7.09;57.58;98568.19;4435012;32;33600;-84
2024/01/05 05:12:31;;;;;;;;;;;;;;;7.12;57.00;98568.19;4434301;32;35173;-83
2024/01/05 05:14:58;;;;;;;;;;;;;;;6.94;57.44;98570.50;4427169;32;34304;-86
2024/01/05 05:17:26;;;;;;;;;;;;;;;7.05;57.19;98576.69;4434921;32;34073;-83
2024/01/05 05:19:55;;;;;;;;;;;;;;;7.01;57.04;98572.34;4428827;32;33575;-83
2024/01/05 05:22:23;;;;;;;;;;;;;;;7.04;56.78;98564.62;4435103;32;34625;-89
2024/01/05 05:24:50;;;;;;;;;;;;;;;6.90;57.16;98561.84;4426627;32;34303;-83
2024/01/05 05:27:18;;;;;;;;;;;;;;;6.99;57.01;98574.88;4434562;32;33481;-84
2024/01/05 05:29:47;;;;;;;;;;;;;;;6.95;57.32;98582.53;4433654;32;34239;-82
2024/01/05 05:32:14;;;;;;;;;;;;;;;6.89;57.65;98579.81;4421171;32;33636;-83
2024/01/05 05:34:44;;;;;;;;;;;;;;;6.69;58.21;98580.34;4435949;32;35370;-86
2024/01/05 05:37:12;;;;;;;;;;;;;;;6.74;58.22;98576.16;4432376;32;36562;-83
2024/01/05 05:39:39;;;;;;;;;;;;;;;6.67;58.59;98579.47;4434802;32;33451;-86
2024/01/05 05:42:06;;;;;;;;;;;;;;;6.73;58.56;98576.97;4429327;32;34954;-83
2024/01/05 05:44:34;;;;;;;;;;;;;;;6.80;58.47;98581.41;4427922;32;34944;-86
2024/01/05 05:47:01;;;;;;;;;;;;;;;6.86;58.47;98575.50;4434665;32;35396;-83
2024/01/05 05:49:28;;;;;;;;;;;;;;;6.84;58.66;98579.75;4434852;32;33004;-83
2024/01/05 05:51:56;;;;;;;;;;;;;;;6.92;58.57;98582.47;4435666;32;33882;-88
2024/01/05 05:54:23;;;;;;;;;;;;;;;6.92;58.62;98588.47;4435562;32;33694;-82
2024/01/05 05:56:50;;;;;;;;;;;;;;;6.96;58.71;98591.97;4434885;32;33671;-83
2024/01/05 05:59:19;;;;;;;;;;;;;;;6.96;58.78;98598.00;4433757;32;33531;-88
2024/01/05 06:01:46;;;;;;;;;;;;;;;6.91;58.96;98598.78;4433772;32;35141;-89
2024/01/05 06:04:13;;;;;;;;;;;;;;;7.07;58.47;98596.47;4434273;32;34196;-83
2024/01/05 06:06:41;;;;;;;;;;;;;;;7.04;58.56;98603.28;4435326;32;34403;-85
2024/01/05 06:09:08;;;;;;;;;;;;;;;7.01;58.89;98609.28;4435358;32;33531;-83
2024/01/05 06:11:36;;;;;;;;;;;;;;;7.11;58.69;98602.56;4431199;32;33511;-83
2024/01/05 06:14:04;;;;;;;;;;;;;;;7.14;58.47;98605.19;4432643;32;33910;-82
2024/01/05 06:16:31;;;;;;;;;;;;;;;7.04;58.76;98605.87;4432574;32;34928;-82
2024/01/05 06:18:58;;;;;;;;;;;;;;;7.04;58.80;98605.87;4430062;32;33089;-82
2024/01/05 06:21:26;;;;;;;;;;;;;;;7.07;58.33;98606.78;4431922;32;34767;-82
2024/01/05 06:23:53;;;;;;;;;;;;;;;7.07;58.23;98608.50;4431937;32;34011;-82
2024/01/05 06:26:21;;;;;;;;;;;;;;;7.16;58.26;98619.00;4432207;32;34010;-85
2024/01/05 06:28:48;;;;;;;;;;;;;;;7.14;58.27;98620.66;4435552;32;34072;-81
2024/01/05 06:31:15;;;;;;;;;;;;;;;7.14;58.13;98617.22;4433846;32;33739;-85
2024/01/05 06:33:43;;;;;;;;;;;;;;;7.11;58.30;98625.75;4431654;32;34964;-82
2024/01/05 06:36:10;;;;;;;;;;;;;;;7.04;58.75;98623.91;4434591;32;34622;-87
2024/01/05 06:38:38;;;;;;;;;;;;;;;7.08;58.58;98625.69;4435570;32;33449;-83
2024/01/05 06:41:05;;;;;;;;;;;;;;;7.11;58.60;98625.75;4431825;32;35015;-88
2024/01/05 06:43:32;;;;;;;;;;;;;;;7.19;58.31;98624.19;4431988;32;34046;-84
2024/01/05 06:45:59;;;;;;;;;;;;;;;7.20;58.33;98623.38;4435767;32;35009;-81
2024/01/05 06:48:27;;;;;;;;;;;;;;;7.19;58.58;98616.44;4433368;32;33479;-83
2024/01/05 06:50:54;;;;;;;;;;;;;;;7.24;58.46;98604.53;4434747;32;34332;-86
2024/01/05 06:53:22;;;;;;;;;;;;;;;7.27;58.13;98617.47;4436777;32;34358;-83
2024/01/05 06:55:49;;;;;;;;;;;;;;;7.20;58.65;98607.91;4435081;32;34546;-82
2024/01/05 06:58:17;;;;;;;;;;;;;;;7.35;58.04;98607.28;4435598;32;34098;-87
2024/01/05 07:00:44;;;;;;;;;;;;;;;7.32;57.87;98608.09;4436901;32;33898;-88
2024/01/05 07:03:11;;;;;;;;;;;;;;;7.26;58.13;98601.97;4436855;32;35244;-87
2024/01/05 07:05:39;;;;;;;;;;;;;;;7.35;58.18;98606.37;4436633;32;34125;-85
2024/01/05 07:08:09;;;;;;;;;;;;;;;7.36;58.12;98613.31;4435587;32;33024;-85
2024/01/05 07:10:37;;;;;;;;;;;;;;;7.31;58.31;98611.53;4436855;32;33946;-82
2024/01/05 07:13:07;;;;;;;;;;;;;;;7.43;58.12;98612.56;4436721;32;35186;-85
2024/01/05 07:15:34;;;;;;;;;;;;;;;7.42;58.15;98609.09;4435647;32;34394;-83
2024/01/05 07:18:03;;;;;;;;;;;;;;;7.38;58.12;98611.59;4436683;32;33481;-84
2024/01/05 07:20:30;;;;;;;;;;;;;;;7.38;58.21;98609.88;4436802;32;34203;-82
2024/01/05 07:22:57;;;;;;;;;;;;;;;7.43;58.15;98607.41;4436318;32;34186;-82
2024/01/05 07:25:25;;;;;;;;;;;;;;;7.42;57.99;98598.78;4436713;32;34255;-86
2024/01/05 07:27:52;;;;;;;;;;;;;;;7.38;58.17;98594.41;4435981;32;34214;-82
2024/01/05 07:30:19;;;;;;;;;;;;;;;7.36;58.55;98590.09;4436798;32;34270;-83
2024/01/05 07:33:07;;;;;;;;;;;;;;;7.39;58.18;98585.84;4424131;32;34336;-89
2024/01/05 07:35:36;;;;;;;;;;;;;;;7.39;58.07;98590.16;4435966;32;34161;-86
2024/01/05 07:38:04;;;;;;;;;;;;;;;7.42;58.27;98585.03;4436449;32;33463;-86
2024/01/05 07:40:31;;;;;;;;;;;;;;;7.54;57.96;98580.94;4436689;32;34083;-87
2024/01/05 07:42:58;;;;;;;;;;;;;;;7.38;58.06;98583.25;4447506;32;34402;-86
2024/01/05 07:45:26;;;;;;;;;;;;;;;7.16;59.09;98582.91;4451757;32;35161;-88
2024/01/05 07:47:57;;;;;;;;;;;;;;;7.11;59.35;98579.34;4436697;32;34327;-85
2024/01/05 07:50:25;;;;;;;;;;;;;;;7.21;59.27;98581.25;4437167;32;33884;-87
2024/01/05 07:52:52;;;;;;;;;;;;;;;7.26;59.24;98582.19;4435743;32;34784;-82
2024/01/05 07:55:21;;;;;;;;;;;;;;;7.22;59.68;98585.56;4435051;32;33469;-86
2024/01/05 07:57:48;;;;;;;;;;;;;;;7.39;59.50;98579.84;4436884;32;34012;-83
2024/01/05 08:00:15;;;;;;;;;;;;;;;7.43;59.69;98576.47;4436978;32;34790;-83
2024/01/05 08:02:46;;;;;;;;;;;;;;;7.49;59.81;98579.97;4423134;32;33244;-84
2024/01/05 08:05:13;;;;;;;;;;;;;;;7.47;60.05;98583.41;4436431;32;35004;-85
2024/01/05 08:07:43;;;;;;;;;;;;;;;7.50;60.05;98586.00;4436060;32;33006;-84
2024/01/05 08:10:11;;;;;;;;;;;;;;;7.39;60.08;98587.56;4435518;32;34505;-83
2024/01/05 08:12:38;;;;;;;;;;;;;;;7.32;60.08;98590.03;4435480;32;34829;-89
2024/01/05 08:15:05;;;;;;;;;;;;;;;7.53;59.45;98596.38;4436701;32;34948;-89
2024/01/05 08:17:43;;;;;;;;;;;;;;;7.57;59.39;98601.59;4436683;32;33618;-85
2024/01/05 08:20:11;;;;;;;;;;;;;;;7.64;58.95;98600.00;4436694;32;33824;-86
2024/01/05 08:22:38;;;;;;;;;;;;;;;7.74;58.71;98604.44;4437140;32;34983;-83
2024/01/05 08:25:06;;;;;;;;;;;;;;;7.75;59.01;98610.47;4436502;32;34795;-85
2024/01/05 08:27:33;;;;;;;;;;;;;;;7.75;58.88;98620.78;4437215;32;33534;-87
2024/01/05 08:30:01;;;;;;;;;;;;;;;7.81;57.81;98615.75;4436853;32;34568;-85
2024/01/05 08:32:28;;;;;;;;;;;;;;;7.74;57.32;98614.78;4435550;32;34035;-82
2024/01/05 08:34:55;;;;;;;;;;;;;;;7.66;57.50;98621.53;4436857;32;34113;-83
2024/01/05 08:37:23;;;;;;;;;;;;;;;7.79;57.55;98612.25;4437003;32;33404;-87
2024/01/05 08:39:50;;;;;;;;;;;;;;;7.75;57.01;98602.72;4436608;32;33569;-84
2024/01/05 08:42:17;;;;;;;;;;;;;;;7.80;57.06;98612.31;4436106;32;35388;-88
2024/01/05 08:44:44;;;;;;;;;;;;;;;7.96;56.84;98625.44;4435538;32;33738;-83
2024/01/05 08:47:13;;;;;;;;;;;;;;;7.54;56.81;98622.22;4436626;32;34000;-84
2024/01/05 08:49:40;;;;;;;;;;;;;;;7.90;55.58;98621.03;4436512;32;34906;-83
2024/01/05 08:52:07;;;;;;;;;;;;;;;8.05;56.53;98620.38;4436066;32;34209;-82
2024/01/05 08:54:37;;;;;;;;;;;;;;;7.89;56.28;98614.13;4435660;32;35021;-83
2024/01/05 08:57:06;;;;;;;;;;;;;;;8.16;55.97;98618.81;4436512;32;34186;-88
2024/01/05 08:59:36;;;;;;;;;;;;;;;7.96;55.80;98621.13;4435750;32;33621;-84
2024/01/05 09:02:03;;;;;;;;;;;;;;;8.31;54.39;98630.19;4436152;32;34521;-89
2024/01/05 09:04:31;;;;;;;;;;;;;;;8.52;54.44;98621.03;4435804;32;34272;-89
2024/01/05 09:06:59;;;;;;;;;;;;;;;8.14;55.99;98635.97;4436483;32;33221;-87
2024/01/05 09:09:26;;;;;;;;;;;;;;;8.59;53.76;98634.88;4433296;32;34036;-88
2024/01/05 09:11:53;;;;;;;;;;;;;;;8.68;53.66;98627.25;4434322;32;34180;-84
2024/01/05 09:14:21;;;;;;;;;;;;;;;8.58;54.08;98633.16;4434107;32;35019;-82
2024/01/05 09:16:48;;;;;;;;;;;;;;;8.39;54.85;98638.94;4434219;32;33547;-82
2024/01/05 09:19:15;;;;;;;;;;;;;;;8.45;53.93;98629.56;4434029;32;35062;-82
2024/01/05 09:21:43;;;;;;;;;;;;;;;8.61;53.61;98627.16;4433923;32;33951;-86
2024/01/05 09:24:10;;;;;;;;;;;;;;;8.72;53.22;98626.44;4434455;32;34012;-82
2024/01/05 09:26:38;;;;;;;;;;;;;;;8.71;53.41;98629.87;4435902;32;32704;-87
2024/01/05 09:29:05;;;;;;;;;;;;;;;9.06;53.46;98642.31;4436013;32;32788;-84
2024/01/05 09:31:32;;;;;;;;;;;;;;;8.87;54.27;98648.16;4435900;32;35181;-85
2024/01/05 09:33:59;;;;;;;;;;;;;;;8.90;53.99;98640.41;4436138;32;34056;-82
2024/01/05 09:36:27;;;;;;;;;;;;;;;8.72;53.56;98639.34;4424885;32;32872;-88
2024/01/05 09:39:15;;;;;;;;;;;;;;;9.02;53.05;98635.38;4427594;32;33323;-89
2024/01/05 09:42:02;;;;;;;;;;;;;;;9.11;52.70;98630.28;4430014;32;33441;-88
2024/01/05 09:44:51;;;;;;;;;;;;;;;9.19;51.78;98620.03;4421796;32;32967;-87
2024/01/05 09:47:39;;;;;;;;;;;;;;;9.21;52.95;98611.44;4420890;32;33193;-85
2024/01/05 09:50:26;;;;;;;;;;;;;;;9.40;52.61;98603.84;4427089;32;32233;-87
2024/01/05 09:53:14;;;;;;;;;;;;;;;9.17;52.93;98599.31;4421792;32;34484;-82
2024/01/05 09:56:02;;;;;;;;;;;;;;;8.92;53.82;98592.19;4423301;32;34391;-82
2024/01/05 09:58:50;;;;;;;;;;;;;;;9.36;53.06;98584.84;4417096;32;32569;-88
2024/01/05 10:01:38;;;;;;;;;;;;;;;9.01;53.34;98587.09;4403250;32;33445;-87
2024/01/05 10:04:26;;;;;;;;;;;;;;;9.14;53.19;98570.00;4439825;32;33849;-81
2024/01/05 10:07:15;;;;;;;;;;;;;;;9.20;53.18;98575.19;4428530;32;32701;-82
2024/01/05 10:10:03;;;;;;;;;;;;;;;9.14;54.59;98573.44;4425979;32;32098;-82
2024/01/05 10:12:50;;;;;;;;;;;;;;;9.46;53.00;98565.06;4421588;32;33471;-82
2024/01/05 10:15:54;;;;;;;;;;;;;;;9.47;52.70;98561.59;4421879;32;35062;-82
2024/01/05 10:18:41;;;;;;;;;;;;;;;9.01;53.05;98566.41;4419094;32;33306;-85
2024/01/05 10:21:28;;;;;;;;;;;;;;;8.84;53.08;98562.81;4418975;32;33342;-89
2024/01/05 10:24:26;;;;;;;;;;;;;;;9.29;52.93;98546.84;4419636;32;32846;-85
2024/01/05 10:27:14;;;;;;;;;;;;;;;9.23;51.92;98550.22;4422401;32;33562;-85
2024/01/05 10:30:05;;;;;;;;;;;;;;;9.05;52.52;98544.03;4422617;32;34613;-81
2024/01/05 10:33:02;;;;;;;;;;;;;;;9.27;51.94;98541.62;4438030;32;32415;-87
2024/01/05 10:35:49;;;;;;;;;;;;;;;9.72;51.78;98537.63;4419955;32;33110;-82
2024/01/05 10:38:37;;;;;;;;;;;;;;;9.81;50.99;98526.50;4420579;32;34456;-82
2024/01/05 10:41:23;;;;;;;;;;;;;;;9.66;51.87;98527.25;4431564;32;34898;-88
2024/01/05 10:44:10;;;;;;;;;;;;;;;9.82;50.78;98512.69;4428972;32;33461;-84
2024/01/05 10:46:57;;;;;;;;;;;;;;;9.81;51.00;98507.47;4423027;32;34374;-81
2024/01/05 10:49:48;;;;;;;;;;;;;;;9.94;51.61;98504.97;4420616;32;33374;-82
2024/01/05 10:52:35;;;;;;;;;;;;;;;9.29;51.68;98499.41;4421033;32;33210;-83
2024/01/05 10:55:22;;;;;;;;;;;;;;;9.97;51.41;98499.81;4423413;32;32901;-83
2024/01/05 10:58:09;;;;;;;;;;;;;;;10.21;50.83;98488.66;4422142;32;33763;-83
2024/01/05 11:00:58;;;;;;;;;;;;;;;10.29;50.92;98490.44;4413267;32;33747;-83
2024/01/05 11:03:47;;;;;;;;;;;;;;;9.68;51.09;98494.47;4420839;32;33258;-87
2024/01/05 11:06:35;;;;;;;;;;;;;;;9.86;51.16;98493.72;4410051;32;32206;-82
2024/01/05 11:09:24;;;;;;;;;;;;;;;9.90;50.43;98489.41;4422913;32;33531;-83
2024/01/05 11:12:21;;;;;;;;;;;;;;;9.86;50.92;98477.31;4422866;32;34171;-83
2024/01/05 11:15:13;;;;;;;;;;;;;;;10.10;50.21;98464.44;4437010;32;34543;-82
2024/01/05 11:18:13;;;;;;;;;;;;;;;10.22;49.44;98469.66;4426811;32;32705;-86
2024/01/05 11:21:05;;;;;;;;;;;;;;;10.26;49.93;98467.13;4435163;32;35148;-82
2024/01/05 11:23:54;;;;;;;;;;;;;;;10.36;49.51;98463.69;4423214;32;33101;-83
2024/01/05 11:26:44;;;;;;;;;;;;;;;9.77;51.24;98466.91;4423207;32;34170;-83
2024/01/05 11:29:47;;;;;;;;;;;;;;;9.77;51.91;98460.00;4425168;32;33242;-84
2024/01/05 11:32:46;;;;;;;;;;;;;;;9.81;51.94;98456.59;4427029;32;32629;-82
2024/01/05 11:35:39;;;;;;;;;;;;;;;9.81;52.06;98458.28;4424922;32;33635;-83
2024/01/05 11:38:28;;;;;;;;;;;;;;;10.11;52.09;98442.88;4413222;32;34486;-83
2024/01/05 11:41:19;;;;;;;;;;;;;;;10.11;52.48;98440.28;4422802;32;32623;-85
2024/01/05 11:44:26;;;;;;;;;;;;;;;9.91;52.88;98439.34;4422499;32;34150;-83
2024/01/05 11:47:29;;;;;;;;;;;;;;;9.78;53.26;98437.59;4436481;32;33063;-83
2024/01/05 11:50:22;;;;;;;;;;;;;;;9.83;53.52;98433.28;4425594;32;33768;-84
2024/01/05 11:53:09;;;;;;;;;;;;;;;9.86;53.68;98430.72;4422882;32;32217;-83
2024/01/05 11:55:57;;;;;;;;;;;;;;;9.95;53.59;98435.91;4425460;32;33744;-82
2024/01/05 11:58:46;;;;;;;;;;;;;;;9.90;54.29;98437.63;4425314;32;33799;-86
2024/01/05 12:01:33;;;;;;;;;;;;;;;9.99;54.01;98437.66;4422621;32;34627;-83
2024/01/05 12:04:21;;;;;;;;;;;;;;;10.59;52.84;98440.41;4423020;32;31842;-84
2024/01/05 12:07:08;;;;;;;;;;;;;;;10.78;52.67;98438.69;4422908;32;33482;-83
2024/01/05 12:09:56;;;;;;;;;;;;;;;10.74;53.11;98448.19;4422735;32;32767;-88
2024/01/05 12:12:43;;;;;;;;;;;;;;;10.66;53.63;98442.16;4436755;32;33919;-83
2024/01/05 12:15:30;;;;;;;;;;;;;;;10.81;53.59;98441.28;4425374;32;33795;-83
2024/01/05 12:18:18;;;;;;;;;;;;;;;10.79;54.03;98448.19;4422764;32;33363;-83
2024/01/05 12:21:21;;;;;;;;;;;;;;;10.79;54.60;98438.69;4425644;32;33804;-82
2024/01/05 12:24:11;;;;;;;;;;;;;;;11.05;53.96;98436.09;4414846;32;34447;-83
2024/01/05 12:26:58;;;;;;;;;;;;;;;11.04;54.39;98441.28;4414853;32;32825;-86
2024/01/05 12:29:45;;;;;;;;;;;;;;;11.27;53.93;98431.75;4422523;32;33891;-83
2024/01/05 12:32:33;;;;;;;;;;;;;;;11.15;54.29;98437.81;4422625;32;33790;-83
2024/01/05 12:35:20;;;;;;;;;;;;;;;11.26;54.15;98434.34;4435835;32;34091;-84
2024/01/05 12:38:08;;;;;;;;;;;;;;;11.15;54.49;98431.78;4422864;32;32584;-82
2024/01/05 12:41:08;;;;;;;;;;;;;;;10.78;54.95;98425.75;4446572;32;33018;-89
2024/01/05 12:43:57;;;;;;;;;;;;;;;11.12;54.32;98418.78;4422734;32;33866;-87
2024/01/05 12:46:46;;;;;;;;;;;;;;;11.36;53.04;98404.91;4422211;32;32692;-87
2024/01/05 12:49:34;;;;;;;;;;;;;;;11.47;52.02;98394.50;4420347;32;32092;-84
2024/01/05 12:52:35;;;;;;;;;;;;;;;11.24;52.41;98399.75;4399543;32;32827;-83
2024/01/05 12:55:26;;;;;;;;;;;;;;;10.87;52.56;98402.38;4397105;32;34438;-82
2024/01/05 12:58:14;;;;;;;;;;;;;;;11.36;51.13;98389.31;4416898;32;33327;-83
2024/01/05 13:01:03;;;;;;;;;;;;;;;11.35;51.59;98388.47;4414188;32;33480;-84
2024/01/05 13:03:54;;;;;;;;;;;;;;;11.30;52.20;98389.38;4422688;32;34174;-83
2024/01/05 13:06:44;;;;;;;;;;;;;;;11.24;52.80;98389.38;4422702;32;33962;-83
2024/01/05 13:09:32;;;;;;;;;;;;;;;11.34;52.62;98396.28;4448084;32;33405;-83
2024/01/05 13:12:20;;;;;;;;;;;;;;;11.46;52.64;98406.59;4422646;32;32447;-83
2024/01/05 13:15:07;;;;;;;;;;;;;;;11.44;52.03;98401.44;4424861;32;33662;-88
2024/01/05 13:17:55;;;;;;;;;;;;;;;11.67;51.66;98397.91;4422152;32;34268;-82
2024/01/05 13:20:42;;;;;;;;;;;;;;;11.62;51.53;98390.09;4424857;32;32631;-83
2024/01/05 13:23:31;;;;;;;;;;;;;;;11.44;52.09;98383.28;4422354;32;32418;-86
2024/01/05 13:26:18;;;;;;;;;;;;;;;11.34;52.71;98385.87;4434917;32;33247;-86
2024/01/05 13:29:05;;;;;;;;;;;;;;;11.24;52.40;98392.81;4421427;32;35288;-87